sensor_id;sensor_type;location;lat;lon;timestamp;temperature;humidity
23618;DHT22;18207;32.078;34.818;2022-08-19T00:01:40;31.80;46.20
23618;DHT22;18207;32.078;34.818;2022-08-19T00:04:21;31.80;46.20
23618;DHT22;18207;32.078;34.818;2022-08-19T00:06:55;31.70;46.20
23618;DHT22;18207;32.078;34.818;2022-08-19T00:09:26;31.70;46.10
23618;DHT22;18207;32.078;34.818;2022-08-19T00:11:58;31.70;46.20
23618;DHT22;18207;32.078;34.818;2022-08-19T00:14:31;31.70;46.20
23618;DHT22;18207;32.078;34.818;2022-08-19T00:17:02;31.70;46.30
23618;DHT22;18207;32.078;34.818;2022-08-19T00:19:34;31.60;46.20
23618;DHT22;18207;32.078;34.818;2022-08-19T00:22:06;31.70;46.30
23618;DHT22;18207;32.078;34.818;2022-08-19T00:24:36;31.60;46.20
23618;DHT22;18207;32.078;34.818;2022-08-19T00:27:17;31.60;46.30
23618;DHT22;18207;32.078;34.818;2022-08-19T00:29:55;31.60;46.30
23618;DHT22;18207;32.078;34.818;2022-08-19T00:32:26;31.50;46.30
23618;DHT22;18207;32.078;34.818;2022-08-19T00:34:57;31.50;46.30
23618;DHT22;18207;32.078;34.818;2022-08-19T00:37:28;31.50;46.40
23618;DHT22;18207;32.078;34.818;2022-08-19T00:40:02;31.50;46.50
23618;DHT22;18207;32.078;34.818;2022-08-19T00:42:34;31.50;46.50
23618;DHT22;18207;32.078;34.818;2022-08-19T00:45:11;31.50;46.60
23618;DHT22;18207;32.078;34.818;2022-08-19T00:47:44;31.50;46.60
23618;DHT22;18207;32.078;34.818;2022-08-19T00:50:18;31.40;46.50
23618;DHT22;18207;32.078;34.818;2022-08-19T00:52:51;31.40;46.50
23618;DHT22;18207;32.078;34.818;2022-08-19T00:55:25;31.40;46.50
23618;DHT22;18207;32.078;34.818;2022-08-19T00:58:01;31.40;46.50
23618;DHT22;18207;32.078;34.818;2022-08-19T01:00:37;31.40;46.60
23618;DHT22;18207;32.078;34.818;2022-08-19T01:03:11;31.40;46.60
23618;DHT22;18207;32.078;34.818;2022-08-19T01:05:46;31.40;46.60
23618;DHT22;18207;32.078;34.818;2022-08-19T01:08:19;31.40;46.70
23618;DHT22;18207;32.078;34.818;2022-08-19T01:10:55;31.40;46.70
23618;DHT22;18207;32.078;34.818;2022-08-19T01:13:32;31.30;46.70
23618;DHT22;18207;32.078;34.818;2022-08-19T01:16:20;31.40;46.80
23618;DHT22;18207;32.078;34.818;2022-08-19T01:18:54;31.40;46.80
23618;DHT22;18207;32.078;34.818;2022-08-19T01:21:29;31.30;46.70
23618;DHT22;18207;32.078;34.818;2022-08-19T01:24:06;31.40;46.80
23618;DHT22;18207;32.078;34.818;2022-08-19T01:26:40;31.40;46.80
23618;DHT22;18207;32.078;34.818;2022-08-19T01:29:13;31.30;46.70
23618;DHT22;18207;32.078;34.818;2022-08-19T01:31:46;31.30;46.70
23618;DHT22;18207;32.078;34.818;2022-08-19T01:34:20;31.30;46.70
23618;DHT22;18207;32.078;34.818;2022-08-19T01:36:51;31.20;46.70
23618;DHT22;18207;32.078;34.818;2022-08-19T01:39:24;31.30;46.80
23618;DHT22;18207;32.078;34.818;2022-08-19T01:41:57;31.30;46.90
23618;DHT22;18207;32.078;34.818;2022-08-19T01:44:31;31.30;46.80
23618;DHT22;18207;32.078;34.818;2022-08-19T01:47:03;31.30;46.90
23618;DHT22;18207;32.078;34.818;2022-08-19T01:49:34;31.20;46.90
23618;DHT22;18207;32.078;34.818;2022-08-19T01:52:06;31.20;46.90
23618;DHT22;18207;32.078;34.818;2022-08-19T01:54:39;31.20;46.90
23618;DHT22;18207;32.078;34.818;2022-08-19T01:57:12;31.20;46.90
23618;DHT22;18207;32.078;34.818;2022-08-19T01:59:45;31.20;47.00
23618;DHT22;18207;32.078;34.818;2022-08-19T02:02:16;31.20;47.00
23618;DHT22;18207;32.078;34.818;2022-08-19T02:04:47;31.20;47.00
23618;DHT22;18207;32.078;34.818;2022-08-19T02:07:19;31.20;47.00
23618;DHT22;18207;32.078;34.818;2022-08-19T02:09:52;31.20;47.00
23618;DHT22;18207;32.078;34.818;2022-08-19T02:12:23;31.20;47.10
23618;DHT22;18207;32.078;34.818;2022-08-19T02:14:54;31.10;47.00
23618;DHT22;18207;32.078;34.818;2022-08-19T02:17:25;31.10;47.10
23618;DHT22;18207;32.078;34.818;2022-08-19T02:19:56;31.10;47.10
23618;DHT22;18207;32.078;34.818;2022-08-19T02:22:27;31.10;47.10
23618;DHT22;18207;32.078;34.818;2022-08-19T02:25:00;31.10;47.20
23618;DHT22;18207;32.078;34.818;2022-08-19T02:27:32;31.10;47.10
23618;DHT22;18207;32.078;34.818;2022-08-19T02:30:06;31.10;47.10
23618;DHT22;18207;32.078;34.818;2022-08-19T02:32:41;31.10;47.10
23618;DHT22;18207;32.078;34.818;2022-08-19T02:35:13;31.00;47.00
23618;DHT22;18207;32.078;34.818;2022-08-19T02:37:44;31.00;47.00
23618;DHT22;18207;32.078;34.818;2022-08-19T02:40:33;31.00;47.10
23618;DHT22;18207;32.078;34.818;2022-08-19T02:43:06;31.00;47.10
23618;DHT22;18207;32.078;34.818;2022-08-19T02:45:38;31.00;47.20
23618;DHT22;18207;32.078;34.818;2022-08-19T02:48:09;30.90;47.10
23618;DHT22;18207;32.078;34.818;2022-08-19T02:50:49;30.90;47.10
23618;DHT22;18207;32.078;34.818;2022-08-19T02:53:24;30.90;47.20
23618;DHT22;18207;32.078;34.818;2022-08-19T02:55:58;30.90;47.20
23618;DHT22;18207;32.078;34.818;2022-08-19T02:58:29;30.80;47.20
23618;DHT22;18207;32.078;34.818;2022-08-19T03:01:00;30.80;47.20
23618;DHT22;18207;32.078;34.818;2022-08-19T03:03:30;30.80;47.20
23618;DHT22;18207;32.078;34.818;2022-08-19T03:06:11;30.80;47.40
23618;DHT22;18207;32.078;34.818;2022-08-19T03:08:46;30.80;47.40
23618;DHT22;18207;32.078;34.818;2022-08-19T03:11:22;30.80;47.40
23618;DHT22;18207;32.078;34.818;2022-08-19T03:13:53;30.80;47.40
23618;DHT22;18207;32.078;34.818;2022-08-19T03:16:27;30.80;47.50
23618;DHT22;18207;32.078;34.818;2022-08-19T03:19:01;30.80;47.50
23618;DHT22;18207;32.078;34.818;2022-08-19T03:21:34;30.80;47.60
23618;DHT22;18207;32.078;34.818;2022-08-19T03:24:07;30.80;47.50
23618;DHT22;18207;32.078;34.818;2022-08-19T03:26:44;30.80;47.60
23618;DHT22;18207;32.078;34.818;2022-08-19T03:29:26;30.80;47.60
23618;DHT22;18207;32.078;34.818;2022-08-19T03:31:59;30.80;47.60
23618;DHT22;18207;32.078;34.818;2022-08-19T03:34:33;30.80;47.60
23618;DHT22;18207;32.078;34.818;2022-08-19T03:37:07;30.80;47.60
23618;DHT22;18207;32.078;34.818;2022-08-19T03:39:41;30.80;47.60
23618;DHT22;18207;32.078;34.818;2022-08-19T03:42:14;30.80;47.60
23618;DHT22;18207;32.078;34.818;2022-08-19T03:45:06;30.80;47.60
23618;DHT22;18207;32.078;34.818;2022-08-19T03:47:38;30.80;47.60
23618;DHT22;18207;32.078;34.818;2022-08-19T03:50:09;30.80;47.50
23618;DHT22;18207;32.078;34.818;2022-08-19T03:52:40;30.80;47.50
23618;DHT22;18207;32.078;34.818;2022-08-19T03:55:13;30.80;47.60
23618;DHT22;18207;32.078;34.818;2022-08-19T03:57:46;30.80;47.60
23618;DHT22;18207;32.078;34.818;2022-08-19T04:00:16;30.80;48.20
23618;DHT22;18207;32.078;34.818;2022-08-19T04:02:48;30.80;47.60
23618;DHT22;18207;32.078;34.818;2022-08-19T04:05:27;30.80;47.60
23618;DHT22;18207;32.078;34.818;2022-08-19T04:07:58;30.70;47.50
23618;DHT22;18207;32.078;34.818;2022-08-19T04:10:28;30.80;47.60
23618;DHT22;18207;32.078;34.818;2022-08-19T04:13:00;30.70;47.60
23618;DHT22;18207;32.078;34.818;2022-08-19T04:15:33;30.80;47.60
23618;DHT22;18207;32.078;34.818;2022-08-19T04:18:08;30.80;47.60
23618;DHT22;18207;32.078;34.818;2022-08-19T04:20:40;30.80;47.60
23618;DHT22;18207;32.078;34.818;2022-08-19T04:23:12;30.80;47.60
23618;DHT22;18207;32.078;34.818;2022-08-19T04:25:44;30.80;47.60
23618;DHT22;18207;32.078;34.818;2022-08-19T04:28:16;30.80;47.60
23618;DHT22;18207;32.078;34.818;2022-08-19T04:30:49;30.80;47.60
23618;DHT22;18207;32.078;34.818;2022-08-19T04:33:23;30.90;47.70
23618;DHT22;18207;32.078;34.818;2022-08-19T04:35:55;30.90;47.70
23618;DHT22;18207;32.078;34.818;2022-08-19T04:38:28;30.90;47.70
23618;DHT22;18207;32.078;34.818;2022-08-19T04:40:58;30.90;47.70
23618;DHT22;18207;32.078;34.818;2022-08-19T04:43:47;31.00;47.80
23618;DHT22;18207;32.078;34.818;2022-08-19T04:46:19;31.00;47.80
23618;DHT22;18207;32.078;34.818;2022-08-19T04:49:07;31.00;47.80
23618;DHT22;18207;32.078;34.818;2022-08-19T04:51:41;31.00;47.80
23618;DHT22;18207;32.078;34.818;2022-08-19T04:54:14;31.10;47.90
23618;DHT22;18207;32.078;34.818;2022-08-19T04:57:06;31.10;47.80
23618;DHT22;18207;32.078;34.818;2022-08-19T04:59:40;31.10;47.80
23618;DHT22;18207;32.078;34.818;2022-08-19T05:02:12;31.20;47.80
23618;DHT22;18207;32.078;34.818;2022-08-19T05:04:43;31.20;47.80
23618;DHT22;18207;32.078;34.818;2022-08-19T05:07:13;31.30;47.90
23618;DHT22;18207;32.078;34.818;2022-08-19T05:09:45;31.30;47.80
23618;DHT22;18207;32.078;34.818;2022-08-19T05:12:25;31.40;47.80
23618;DHT22;18207;32.078;34.818;2022-08-19T05:14:59;31.40;47.80
23618;DHT22;18207;32.078;34.818;2022-08-19T05:17:29;31.50;47.80
23618;DHT22;18207;32.078;34.818;2022-08-19T05:20:06;31.50;47.70
23618;DHT22;18207;32.078;34.818;2022-08-19T05:22:55;31.50;47.70
23618;DHT22;18207;32.078;34.818;2022-08-19T05:25:25;31.60;47.80
23618;DHT22;18207;32.078;34.818;2022-08-19T05:27:56;31.60;48.30
23618;DHT22;18207;32.078;34.818;2022-08-19T05:30:29;31.60;47.60
23618;DHT22;18207;32.078;34.818;2022-08-19T05:33:13;31.70;47.60
23618;DHT22;18207;32.078;34.818;2022-08-19T05:35:44;31.80;47.70
23618;DHT22;18207;32.078;34.818;2022-08-19T05:38:16;31.80;47.70
23618;DHT22;18207;32.078;34.818;2022-08-19T05:40:48;31.90;47.70
23618;DHT22;18207;32.078;34.818;2022-08-19T05:43:18;31.90;47.70
23618;DHT22;18207;32.078;34.818;2022-08-19T05:45:51;32.00;47.70
23618;DHT22;18207;32.078;34.818;2022-08-19T05:48:21;32.00;47.60
23618;DHT22;18207;32.078;34.818;2022-08-19T05:50:52;32.10;47.70
23618;DHT22;18207;32.078;34.818;2022-08-19T05:53:22;32.20;47.70
23618;DHT22;18207;32.078;34.818;2022-08-19T05:55:53;32.20;47.60
23618;DHT22;18207;32.078;34.818;2022-08-19T05:58:25;32.20;47.60
23618;DHT22;18207;32.078;34.818;2022-08-19T06:00:59;32.30;47.60
23618;DHT22;18207;32.078;34.818;2022-08-19T06:03:33;32.40;47.70
23618;DHT22;18207;32.078;34.818;2022-08-19T06:06:05;32.50;47.60
23618;DHT22;18207;32.078;34.818;2022-08-19T06:08:39;32.50;47.60
23618;DHT22;18207;32.078;34.818;2022-08-19T06:11:16;32.50;47.50
23618;DHT22;18207;32.078;34.818;2022-08-19T06:13:52;32.60;47.50
23618;DHT22;18207;32.078;34.818;2022-08-19T06:16:28;32.70;47.50
23618;DHT22;18207;32.078;34.818;2022-08-19T06:19:05;32.80;47.40
23618;DHT22;18207;32.078;34.818;2022-08-19T06:21:41;32.80;47.30
23618;DHT22;18207;32.078;34.818;2022-08-19T06:24:17;32.90;47.40
23618;DHT22;18207;32.078;34.818;2022-08-19T06:26:52;32.90;47.20
23618;DHT22;18207;32.078;34.818;2022-08-19T06:29:29;33.00;47.20
23618;DHT22;18207;32.078;34.818;2022-08-19T06:32:03;33.00;47.20
23618;DHT22;18207;32.078;34.818;2022-08-19T06:34:34;33.00;47.10
23618;DHT22;18207;32.078;34.818;2022-08-19T06:37:06;33.00;47.00
23618;DHT22;18207;32.078;34.818;2022-08-19T06:39:38;33.10;47.10
23618;DHT22;18207;32.078;34.818;2022-08-19T06:42:11;33.20;47.00
23618;DHT22;18207;32.078;34.818;2022-08-19T06:44:45;33.20;47.00
23618;DHT22;18207;32.078;34.818;2022-08-19T06:47:22;33.30;46.90
23618;DHT22;18207;32.078;34.818;2022-08-19T06:49:55;33.30;46.80
23618;DHT22;18207;32.078;34.818;2022-08-19T06:52:33;33.40;46.90
23618;DHT22;18207;32.078;34.818;2022-08-19T06:55:05;33.40;46.80
23618;DHT22;18207;32.078;34.818;2022-08-19T06:57:37;33.50;46.70
23618;DHT22;18207;32.078;34.818;2022-08-19T07:00:08;33.50;46.60
23618;DHT22;18207;32.078;34.818;2022-08-19T07:02:43;33.60;46.60
23618;DHT22;18207;32.078;34.818;2022-08-19T07:05:22;33.60;46.60
23618;DHT22;18207;32.078;34.818;2022-08-19T07:07:52;33.60;46.50
23618;DHT22;18207;32.078;34.818;2022-08-19T07:10:30;33.60;46.50
23618;DHT22;18207;32.078;34.818;2022-08-19T07:13:02;33.70;46.40
23618;DHT22;18207;32.078;34.818;2022-08-19T07:15:33;33.70;46.40
23618;DHT22;18207;32.078;34.818;2022-08-19T07:18:09;33.80;46.30
23618;DHT22;18207;32.078;34.818;2022-08-19T07:20:40;33.90;46.30
23618;DHT22;18207;32.078;34.818;2022-08-19T07:23:11;33.90;46.20
23618;DHT22;18207;32.078;34.818;2022-08-19T07:25:43;34.00;46.10
23618;DHT22;18207;32.078;34.818;2022-08-19T07:28:19;34.00;46.00
23618;DHT22;18207;32.078;34.818;2022-08-19T07:30:51;34.00;45.90
23618;DHT22;18207;32.078;34.818;2022-08-19T07:33:24;34.00;45.90
23618;DHT22;18207;32.078;34.818;2022-08-19T07:35:55;34.00;45.80
23618;DHT22;18207;32.078;34.818;2022-08-19T07:38:26;34.00;45.80
23618;DHT22;18207;32.078;34.818;2022-08-19T07:40:57;34.00;45.70
23618;DHT22;18207;32.078;34.818;2022-08-19T07:43:29;34.10;45.70
23618;DHT22;18207;32.078;34.818;2022-08-19T07:46:01;34.10;45.60
23618;DHT22;18207;32.078;34.818;2022-08-19T07:48:34;34.10;45.50
23618;DHT22;18207;32.078;34.818;2022-08-19T07:51:08;34.10;45.50
23618;DHT22;18207;32.078;34.818;2022-08-19T07:53:55;34.20;45.40
23618;DHT22;18207;32.078;34.818;2022-08-19T07:56:26;34.20;45.40
23618;DHT22;18207;32.078;34.818;2022-08-19T07:58:57;34.20;45.30
23618;DHT22;18207;32.078;34.818;2022-08-19T08:01:28;34.30;45.40
23618;DHT22;18207;32.078;34.818;2022-08-19T08:04:10;34.30;45.50
23618;DHT22;18207;32.078;34.818;2022-08-19T08:06:58;34.30;45.40
23618;DHT22;18207;32.078;34.818;2022-08-19T08:09:46;34.40;45.50
23618;DHT22;18207;32.078;34.818;2022-08-19T08:12:18;34.40;45.30
23618;DHT22;18207;32.078;34.818;2022-08-19T08:15:03;34.50;45.30
23618;DHT22;18207;32.078;34.818;2022-08-19T08:17:39;34.50;45.20
23618;DHT22;18207;32.078;34.818;2022-08-19T08:20:20;34.60;45.30
23618;DHT22;18207;32.078;34.818;2022-08-19T08:22:52;34.60;45.10
23618;DHT22;18207;32.078;34.818;2022-08-19T08:25:39;34.70;45.20
23618;DHT22;18207;32.078;34.818;2022-08-19T08:28:10;34.80;45.20
23618;DHT22;18207;32.078;34.818;2022-08-19T08:30:49;34.80;45.20
23618;DHT22;18207;32.078;34.818;2022-08-19T08:33:23;34.90;45.20
23618;DHT22;18207;32.078;34.818;2022-08-19T08:36:04;34.90;45.20
23618;DHT22;18207;32.078;34.818;2022-08-19T08:38:36;34.90;45.10
23618;DHT22;18207;32.078;34.818;2022-08-19T08:41:15;35.00;45.10
23618;DHT22;18207;32.078;34.818;2022-08-19T08:43:55;35.10;45.00
23618;DHT22;18207;32.078;34.818;2022-08-19T08:46:33;35.20;44.90
23618;DHT22;18207;32.078;34.818;2022-08-19T08:49:23;35.20;44.90
23618;DHT22;18207;32.078;34.818;2022-08-19T08:52:05;35.20;44.60
23618;DHT22;18207;32.078;34.818;2022-08-19T08:54:46;35.30;45.20
23618;DHT22;18207;32.078;34.818;2022-08-19T08:57:27;35.40;44.50
23618;DHT22;18207;32.078;34.818;2022-08-19T09:00:09;35.40;44.50
23618;DHT22;18207;32.078;34.818;2022-08-19T09:02:44;35.50;44.50
23618;DHT22;18207;32.078;34.818;2022-08-19T09:05:17;35.50;44.50
23618;DHT22;18207;32.078;34.818;2022-08-19T09:08:00;35.60;44.50
23618;DHT22;18207;32.078;34.818;2022-08-19T09:10:38;35.60;44.40
23618;DHT22;18207;32.078;34.818;2022-08-19T09:13:21;35.60;44.40
23618;DHT22;18207;32.078;34.818;2022-08-19T09:16:06;35.60;44.30
23618;DHT22;18207;32.078;34.818;2022-08-19T09:18:43;35.70;44.30
23618;DHT22;18207;32.078;34.818;2022-08-19T09:21:16;35.70;44.20
23618;DHT22;18207;32.078;34.818;2022-08-19T09:23:58;35.70;44.20
23618;DHT22;18207;32.078;34.818;2022-08-19T09:26:30;35.80;44.20
23618;DHT22;18207;32.078;34.818;2022-08-19T09:29:19;35.80;44.20
23618;DHT22;18207;32.078;34.818;2022-08-19T09:31:50;35.90;44.20
23618;DHT22;18207;32.078;34.818;2022-08-19T09:34:22;35.90;44.10
23618;DHT22;18207;32.078;34.818;2022-08-19T09:36:53;35.90;44.00
23618;DHT22;18207;32.078;34.818;2022-08-19T09:39:28;35.90;44.00
23618;DHT22;18207;32.078;34.818;2022-08-19T09:42:02;35.90;44.10
23618;DHT22;18207;32.078;34.818;2022-08-19T09:44:46;36.00;44.00
23618;DHT22;18207;32.078;34.818;2022-08-19T09:47:17;36.00;44.00
23618;DHT22;18207;32.078;34.818;2022-08-19T09:49:49;36.00;44.00
23618;DHT22;18207;32.078;34.818;2022-08-19T09:52:21;36.00;43.90
23618;DHT22;18207;32.078;34.818;2022-08-19T09:55:00;36.00;44.40
23618;DHT22;18207;32.078;34.818;2022-08-19T09:57:34;36.10;43.80
23618;DHT22;18207;32.078;34.818;2022-08-19T10:00:08;36.00;43.80
23618;DHT22;18207;32.078;34.818;2022-08-19T10:02:39;36.10;43.80
23618;DHT22;18207;32.078;34.818;2022-08-19T10:05:12;36.10;43.80
23618;DHT22;18207;32.078;34.818;2022-08-19T10:07:59;36.10;43.70
23618;DHT22;18207;32.078;34.818;2022-08-19T10:10:41;36.10;43.70
23618;DHT22;18207;32.078;34.818;2022-08-19T10:13:14;36.10;43.50
23618;DHT22;18207;32.078;34.818;2022-08-19T10:15:48;36.20;43.60
23618;DHT22;18207;32.078;34.818;2022-08-19T10:18:24;36.20;43.40
23618;DHT22;18207;32.078;34.818;2022-08-19T10:21:05;36.20;43.40
23618;DHT22;18207;32.078;34.818;2022-08-19T10:23:39;36.20;43.20
23618;DHT22;18207;32.078;34.818;2022-08-19T10:26:18;36.30;43.30
23618;DHT22;18207;32.078;34.818;2022-08-19T10:28:53;36.30;43.20
23618;DHT22;18207;32.078;34.818;2022-08-19T10:31:27;36.30;43.10
23618;DHT22;18207;32.078;34.818;2022-08-19T10:34:19;36.20;43.00
23618;DHT22;18207;32.078;34.818;2022-08-19T10:36:55;36.20;43.00
23618;DHT22;18207;32.078;34.818;2022-08-19T10:39:29;36.30;43.00
23618;DHT22;18207;32.078;34.818;2022-08-19T10:42:11;36.30;42.90
23618;DHT22;18207;32.078;34.818;2022-08-19T10:44:44;36.30;42.90
23618;DHT22;18207;32.078;34.818;2022-08-19T10:47:18;36.30;42.90
23618;DHT22;18207;32.078;34.818;2022-08-19T10:49:53;36.30;42.90
23618;DHT22;18207;32.078;34.818;2022-08-19T10:52:43;36.30;42.80
23618;DHT22;18207;32.078;34.818;2022-08-19T10:55:18;36.30;42.80
23618;DHT22;18207;32.078;34.818;2022-08-19T10:58:15;36.30;42.80
23618;DHT22;18207;32.078;34.818;2022-08-19T11:00:54;36.30;42.60
23618;DHT22;18207;32.078;34.818;2022-08-19T11:03:27;36.30;42.70
23618;DHT22;18207;32.078;34.818;2022-08-19T11:06:00;36.20;42.60
23618;DHT22;18207;32.078;34.818;2022-08-19T11:08:31;36.20;42.60
23618;DHT22;18207;32.078;34.818;2022-08-19T11:11:03;36.20;42.60
23618;DHT22;18207;32.078;34.818;2022-08-19T11:13:39;36.20;42.50
23618;DHT22;18207;32.078;34.818;2022-08-19T11:16:11;36.20;42.50
23618;DHT22;18207;32.078;34.818;2022-08-19T11:18:45;36.20;42.60
23618;DHT22;18207;32.078;34.818;2022-08-19T11:21:21;36.20;42.60
23618;DHT22;18207;32.078;34.818;2022-08-19T11:23:58;36.10;42.50
23618;DHT22;18207;32.078;34.818;2022-08-19T11:26:31;36.20;42.50
23618;DHT22;18207;32.078;34.818;2022-08-19T11:29:06;36.20;42.60
23618;DHT22;18207;32.078;34.818;2022-08-19T11:31:41;36.10;42.60
23618;DHT22;18207;32.078;34.818;2022-08-19T11:34:15;36.20;42.70
23618;DHT22;18207;32.078;34.818;2022-08-19T11:36:49;36.20;42.70
23618;DHT22;18207;32.078;34.818;2022-08-19T11:39:21;36.20;42.70
23618;DHT22;18207;32.078;34.818;2022-08-19T11:41:52;36.20;42.80
23618;DHT22;18207;32.078;34.818;2022-08-19T11:44:25;36.10;42.70
23618;DHT22;18207;32.078;34.818;2022-08-19T11:47:03;36.10;42.60
23618;DHT22;18207;32.078;34.818;2022-08-19T11:49:35;36.10;42.60
23618;DHT22;18207;32.078;34.818;2022-08-19T11:52:06;36.10;42.70
23618;DHT22;18207;32.078;34.818;2022-08-19T11:54:36;36.10;42.70
23618;DHT22;18207;32.078;34.818;2022-08-19T11:57:07;36.00;42.70
23618;DHT22;18207;32.078;34.818;2022-08-19T11:59:40;36.00;42.70
23618;DHT22;18207;32.078;34.818;2022-08-19T12:02:11;36.00;42.80
23618;DHT22;18207;32.078;34.818;2022-08-19T12:04:41;36.00;42.80
23618;DHT22;18207;32.078;34.818;2022-08-19T12:07:12;36.00;42.80
23618;DHT22;18207;32.078;34.818;2022-08-19T12:09:43;36.00;42.80
23618;DHT22;18207;32.078;34.818;2022-08-19T12:12:15;36.00;42.90
23618;DHT22;18207;32.078;34.818;2022-08-19T12:14:47;35.90;42.90
23618;DHT22;18207;32.078;34.818;2022-08-19T12:17:24;35.90;42.90
23618;DHT22;18207;32.078;34.818;2022-08-19T12:19:56;35.90;42.90
23618;DHT22;18207;32.078;34.818;2022-08-19T12:22:27;35.90;42.90
23618;DHT22;18207;32.078;34.818;2022-08-19T12:24:58;35.90;42.90
23618;DHT22;18207;32.078;34.818;2022-08-19T12:27:28;35.90;42.90
23618;DHT22;18207;32.078;34.818;2022-08-19T12:30:12;35.80;42.90
23618;DHT22;18207;32.078;34.818;2022-08-19T12:32:44;35.80;42.90
23618;DHT22;18207;32.078;34.818;2022-08-19T12:35:14;35.80;42.90
23618;DHT22;18207;32.078;34.818;2022-08-19T12:37:49;35.80;42.90
23618;DHT22;18207;32.078;34.818;2022-08-19T12:40:23;35.70;43.50
23618;DHT22;18207;32.078;34.818;2022-08-19T12:42:54;35.70;42.90
23618;DHT22;18207;32.078;34.818;2022-08-19T12:45:28;35.70;42.90
23618;DHT22;18207;32.078;34.818;2022-08-19T12:48:00;35.60;42.80
23618;DHT22;18207;32.078;34.818;2022-08-19T12:50:52;35.60;42.80
23618;DHT22;18207;32.078;34.818;2022-08-19T12:53:23;35.60;42.80
23618;DHT22;18207;32.078;34.818;2022-08-19T12:55:57;35.60;42.80
23618;DHT22;18207;32.078;34.818;2022-08-19T12:58:29;35.60;42.80
23618;DHT22;18207;32.078;34.818;2022-08-19T13:01:09;35.60;42.80
23618;DHT22;18207;32.078;34.818;2022-08-19T13:03:45;35.50;42.70
23618;DHT22;18207;32.078;34.818;2022-08-19T13:06:17;35.50;42.80
23618;DHT22;18207;32.078;34.818;2022-08-19T13:08:48;35.50;42.80
23618;DHT22;18207;32.078;34.818;2022-08-19T13:11:25;35.50;42.90
23618;DHT22;18207;32.078;34.818;2022-08-19T13:14:01;35.50;42.90
23618;DHT22;18207;32.078;34.818;2022-08-19T13:16:35;35.40;42.80
23618;DHT22;18207;32.078;34.818;2022-08-19T13:19:06;35.40;42.80
23618;DHT22;18207;32.078;34.818;2022-08-19T13:21:36;35.40;42.80
23618;DHT22;18207;32.078;34.818;2022-08-19T13:24:08;35.30;42.70
23618;DHT22;18207;32.078;34.818;2022-08-19T13:26:40;35.30;42.80
23618;DHT22;18207;32.078;34.818;2022-08-19T13:29:12;35.20;42.70
23618;DHT22;18207;32.078;34.818;2022-08-19T13:32:11;35.20;42.80
23618;DHT22;18207;32.078;34.818;2022-08-19T13:34:58;35.20;42.90
23618;DHT22;18207;32.078;34.818;2022-08-19T13:37:29;35.20;42.90
23618;DHT22;18207;32.078;34.818;2022-08-19T13:40:15;35.20;42.90
23618;DHT22;18207;32.078;34.818;2022-08-19T13:42:51;35.10;42.80
23618;DHT22;18207;32.078;34.818;2022-08-19T13:45:25;35.10;42.80
23618;DHT22;18207;32.078;34.818;2022-08-19T13:48:02;35.10;42.80
23618;DHT22;18207;32.078;34.818;2022-08-19T13:50:39;35.10;42.90
23618;DHT22;18207;32.078;34.818;2022-08-19T13:53:11;35.10;42.90
23618;DHT22;18207;32.078;34.818;2022-08-19T13:55:43;35.00;42.90
23618;DHT22;18207;32.078;34.818;2022-08-19T13:58:14;35.00;42.90
23618;DHT22;18207;32.078;34.818;2022-08-19T14:00:46;35.00;42.90
23618;DHT22;18207;32.078;34.818;2022-08-19T14:03:19;35.00;43.00
23618;DHT22;18207;32.078;34.818;2022-08-19T14:05:51;34.90;43.00
23618;DHT22;18207;32.078;34.818;2022-08-19T14:08:22;34.90;42.90
23618;DHT22;18207;32.078;34.818;2022-08-19T14:10:53;34.90;43.00
23618;DHT22;18207;32.078;34.818;2022-08-19T14:13:24;34.90;43.00
23618;DHT22;18207;32.078;34.818;2022-08-19T14:15:55;34.90;43.00
23618;DHT22;18207;32.078;34.818;2022-08-19T14:18:28;34.90;43.00
23618;DHT22;18207;32.078;34.818;2022-08-19T14:20:58;34.80;43.00
23618;DHT22;18207;32.078;34.818;2022-08-19T14:23:29;34.80;43.10
23618;DHT22;18207;32.078;34.818;2022-08-19T14:26:04;34.80;43.10
23618;DHT22;18207;32.078;34.818;2022-08-19T14:28:37;34.80;43.00
23618;DHT22;18207;32.078;34.818;2022-08-19T14:31:09;34.70;43.00
23618;DHT22;18207;32.078;34.818;2022-08-19T14:33:42;34.70;43.00
23618;DHT22;18207;32.078;34.818;2022-08-19T14:36:13;34.70;43.00
23618;DHT22;18207;32.078;34.818;2022-08-19T14:38:45;34.70;43.00
23618;DHT22;18207;32.078;34.818;2022-08-19T14:41:18;34.60;43.10
23618;DHT22;18207;32.078;34.818;2022-08-19T14:43:52;34.60;43.10
23618;DHT22;18207;32.078;34.818;2022-08-19T14:46:26;34.60;43.70
23618;DHT22;18207;32.078;34.818;2022-08-19T14:48:59;34.60;43.10
23618;DHT22;18207;32.078;34.818;2022-08-19T14:51:35;34.50;43.00
23618;DHT22;18207;32.078;34.818;2022-08-19T14:54:06;34.50;43.00
23618;DHT22;18207;32.078;34.818;2022-08-19T14:56:36;34.60;43.10
23618;DHT22;18207;32.078;34.818;2022-08-19T14:59:11;34.50;43.10
23618;DHT22;18207;32.078;34.818;2022-08-19T15:01:42;34.50;43.20
23618;DHT22;18207;32.078;34.818;2022-08-19T15:04:14;34.40;43.20
23618;DHT22;18207;32.078;34.818;2022-08-19T15:06:45;34.40;43.20
23618;DHT22;18207;32.078;34.818;2022-08-19T15:09:16;34.40;43.30
23618;DHT22;18207;32.078;34.818;2022-08-19T15:11:46;34.40;43.30
23618;DHT22;18207;32.078;34.818;2022-08-19T15:14:17;34.40;43.40
23618;DHT22;18207;32.078;34.818;2022-08-19T15:16:48;34.30;43.40
23618;DHT22;18207;32.078;34.818;2022-08-19T15:19:21;34.30;43.40
23618;DHT22;18207;32.078;34.818;2022-08-19T15:21:52;34.30;43.40
23618;DHT22;18207;32.078;34.818;2022-08-19T15:24:22;34.30;43.50
23618;DHT22;18207;32.078;34.818;2022-08-19T15:26:54;34.30;43.50
23618;DHT22;18207;32.078;34.818;2022-08-19T15:29:24;34.30;43.50
23618;DHT22;18207;32.078;34.818;2022-08-19T15:31:56;34.30;43.60
23618;DHT22;18207;32.078;34.818;2022-08-19T15:34:30;34.20;43.50
23618;DHT22;18207;32.078;34.818;2022-08-19T15:37:01;34.10;43.60
23618;DHT22;18207;32.078;34.818;2022-08-19T15:39:33;34.20;43.70
23618;DHT22;18207;32.078;34.818;2022-08-19T15:42:04;34.20;43.70
23618;DHT22;18207;32.078;34.818;2022-08-19T15:44:35;34.10;43.70
23618;DHT22;18207;32.078;34.818;2022-08-19T15:47:06;34.10;43.70
23618;DHT22;18207;32.078;34.818;2022-08-19T15:49:39;34.00;43.60
23618;DHT22;18207;32.078;34.818;2022-08-19T15:52:10;34.10;43.70
23618;DHT22;18207;32.078;34.818;2022-08-19T15:54:44;34.00;43.60
23618;DHT22;18207;32.078;34.818;2022-08-19T15:57:16;34.00;43.60
23618;DHT22;18207;32.078;34.818;2022-08-19T16:00:05;34.00;43.60